sensor_id;sensor_type;location;lat;lon;timestamp;temperature;humidity
13848;DHT22;6994;49.752;6.094;2022-09-27T00:02:23;10.50;99.90
13848;DHT22;6994;49.752;6.094;2022-09-27T00:04:50;10.50;99.90
13848;DHT22;6994;49.752;6.094;2022-09-27T00:07:18;10.50;99.90
13848;DHT22;6994;49.752;6.094;2022-09-27T00:09:45;10.50;99.90
13848;DHT22;6994;49.752;6.094;2022-09-27T00:12:12;10.60;99.90
13848;DHT22;6994;49.752;6.094;2022-09-27T00:14:39;10.70;99.90
13848;DHT22;6994;49.752;6.094;2022-09-27T00:17:07;10.90;99.90
13848;DHT22;6994;49.752;6.094;2022-09-27T00:19:34;10.90;99.90
13848;DHT22;6994;49.752;6.094;2022-09-27T00:22:01;10.80;99.90
13848;DHT22;6994;49.752;6.094;2022-09-27T00:24:28;10.70;99.90
13848;DHT22;6994;49.752;6.094;2022-09-27T00:26:56;10.50;99.90
13848;DHT22;6994;49.752;6.094;2022-09-27T00:29:24;10.40;99.90
13848;DHT22;6994;49.752;6.094;2022-09-27T00:31:52;10.30;99.90
13848;DHT22;6994;49.752;6.094;2022-09-27T00:34:20;10.30;99.90
13848;DHT22;6994;49.752;6.094;2022-09-27T00:36:47;10.30;99.90
13848;DHT22;6994;49.752;6.094;2022-09-27T00:39:14;10.20;99.90
13848;DHT22;6994;49.752;6.094;2022-09-27T00:41:41;10.20;99.90
13848;DHT22;6994;49.752;6.094;2022-09-27T00:49:49;10.20;99.90
13848;DHT22;6994;49.752;6.094;2022-09-27T00:52:19;10.10;99.90
13848;DHT22;6994;49.752;6.094;2022-09-27T00:54:45;10.10;99.90
13848;DHT22;6994;49.752;6.094;2022-09-27T00:57:12;10.00;99.90
13848;DHT22;6994;49.752;6.094;2022-09-27T00:59:47;9.90;99.90
13848;DHT22;6994;49.752;6.094;2022-09-27T01:02:09;9.90;99.90
13848;DHT22;6994;49.752;6.094;2022-09-27T01:04:36;9.80;99.90
13848;DHT22;6994;49.752;6.094;2022-09-27T01:07:03;10.00;99.90
13848;DHT22;6994;49.752;6.094;2022-09-27T01:09:31;10.10;99.90
13848;DHT22;6994;49.752;6.094;2022-09-27T01:17:55;9.90;99.90
13848;DHT22;6994;49.752;6.094;2022-09-27T01:23:32;9.70;99.90
13848;DHT22;6994;49.752;6.094;2022-09-27T01:26:11;9.60;99.90
13848;DHT22;6994;49.752;6.094;2022-09-27T01:31:32;9.50;99.90
13848;DHT22;6994;49.752;6.094;2022-09-27T01:34:03;9.50;99.90
13848;DHT22;6994;49.752;6.094;2022-09-27T01:41:56;10.10;99.90
13848;DHT22;6994;49.752;6.094;2022-09-27T01:47:15;10.20;99.90
13848;DHT22;6994;49.752;6.094;2022-09-27T01:52:19;10.20;99.90
13848;DHT22;6994;49.752;6.094;2022-09-27T01:54:46;10.10;99.90
13848;DHT22;6994;49.752;6.094;2022-09-27T01:57:16;9.90;99.90
13848;DHT22;6994;49.752;6.094;2022-09-27T01:59:49;9.90;99.90
13848;DHT22;6994;49.752;6.094;2022-09-27T02:02:14;9.90;99.90
13848;DHT22;6994;49.752;6.094;2022-09-27T02:04:41;9.90;99.90
13848;DHT22;6994;49.752;6.094;2022-09-27T02:07:16;9.90;99.90
13848;DHT22;6994;49.752;6.094;2022-09-27T02:10:02;10.00;99.90
13848;DHT22;6994;49.752;6.094;2022-09-27T02:12:29;10.00;99.90
13848;DHT22;6994;49.752;6.094;2022-09-27T02:15:04;9.90;99.90
13848;DHT22;6994;49.752;6.094;2022-09-27T02:20:29;10.10;99.90
13848;DHT22;6994;49.752;6.094;2022-09-27T02:23:09;10.40;99.90
13848;DHT22;6994;49.752;6.094;2022-09-27T02:25:50;10.60;99.90
13848;DHT22;6994;49.752;6.094;2022-09-27T02:30:53;10.90;99.90
13848;DHT22;6994;49.752;6.094;2022-09-27T02:33:21;11.00;99.90
13848;DHT22;6994;49.752;6.094;2022-09-27T02:35:47;11.10;99.90
13848;DHT22;6994;49.752;6.094;2022-09-27T02:38:14;10.90;99.90
13848;DHT22;6994;49.752;6.094;2022-09-27T02:40:45;10.90;99.90
13848;DHT22;6994;49.752;6.094;2022-09-27T02:43:09;10.70;99.90
13848;DHT22;6994;49.752;6.094;2022-09-27T02:48:39;10.60;99.90
13848;DHT22;6994;49.752;6.094;2022-09-27T02:51:15;10.40;99.90
13848;DHT22;6994;49.752;6.094;2022-09-27T02:59:48;10.00;99.90
13848;DHT22;6994;49.752;6.094;2022-09-27T03:02:32;9.80;99.90
13848;DHT22;6994;49.752;6.094;2022-09-27T03:05:08;9.70;99.90
13848;DHT22;6994;49.752;6.094;2022-09-27T03:07:34;9.70;99.90
13848;DHT22;6994;49.752;6.094;2022-09-27T03:10:01;9.60;99.90
13848;DHT22;6994;49.752;6.094;2022-09-27T03:12:28;9.60;99.90
13848;DHT22;6994;49.752;6.094;2022-09-27T03:14:56;9.50;99.90
13848;DHT22;6994;49.752;6.094;2022-09-27T03:17:23;9.50;99.90
13848;DHT22;6994;49.752;6.094;2022-09-27T03:19:50;9.50;99.90
13848;DHT22;6994;49.752;6.094;2022-09-27T03:22:17;9.40;99.90
13848;DHT22;6994;49.752;6.094;2022-09-27T03:24:44;9.40;99.90
13848;DHT22;6994;49.752;6.094;2022-09-27T03:27:12;9.40;99.90
13848;DHT22;6994;49.752;6.094;2022-09-27T03:29:39;9.40;99.90
13848;DHT22;6994;49.752;6.094;2022-09-27T03:32:06;9.40;99.90
13848;DHT22;6994;49.752;6.094;2022-09-27T03:34:33;9.40;99.90
13848;DHT22;6994;49.752;6.094;2022-09-27T03:37:00;9.30;99.90
13848;DHT22;6994;49.752;6.094;2022-09-27T03:39:28;9.30;99.90
13848;DHT22;6994;49.752;6.094;2022-09-27T03:41:55;9.30;99.90
13848;DHT22;6994;49.752;6.094;2022-09-27T03:44:22;9.30;99.90
13848;DHT22;6994;49.752;6.094;2022-09-27T03:46:49;9.30;99.90
13848;DHT22;6994;49.752;6.094;2022-09-27T03:49:16;9.30;99.90
13848;DHT22;6994;49.752;6.094;2022-09-27T03:51:44;9.30;99.90
13848;DHT22;6994;49.752;6.094;2022-09-27T03:54:11;9.20;99.90
13848;DHT22;6994;49.752;6.094;2022-09-27T03:56:38;9.30;99.90
13848;DHT22;6994;49.752;6.094;2022-09-27T03:59:05;9.20;99.90
13848;DHT22;6994;49.752;6.094;2022-09-27T04:01:32;9.30;99.90
13848;DHT22;6994;49.752;6.094;2022-09-27T04:04:00;9.30;99.90
13848;DHT22;6994;49.752;6.094;2022-09-27T04:06:27;9.30;99.90
13848;DHT22;6994;49.752;6.094;2022-09-27T04:08:54;9.30;99.90
13848;DHT22;6994;49.752;6.094;2022-09-27T04:11:21;9.50;99.90
13848;DHT22;6994;49.752;6.094;2022-09-27T04:13:48;9.60;99.90
13848;DHT22;6994;49.752;6.094;2022-09-27T04:16:16;9.90;99.90
13848;DHT22;6994;49.752;6.094;2022-09-27T04:18:43;10.00;99.90
13848;DHT22;6994;49.752;6.094;2022-09-27T04:21:10;9.90;99.90
13848;DHT22;6994;49.752;6.094;2022-09-27T04:23:37;9.90;99.90
13848;DHT22;6994;49.752;6.094;2022-09-27T04:26:04;9.80;99.90
13848;DHT22;6994;49.752;6.094;2022-09-27T04:28:32;9.70;99.90
13848;DHT22;6994;49.752;6.094;2022-09-27T04:30:59;9.80;99.90
13848;DHT22;6994;49.752;6.094;2022-09-27T04:33:26;9.80;99.90
13848;DHT22;6994;49.752;6.094;2022-09-27T04:35:53;10.00;99.90
13848;DHT22;6994;49.752;6.094;2022-09-27T04:38:38;9.90;99.90
13848;DHT22;6994;49.752;6.094;2022-09-27T04:41:06;10.10;99.90
13848;DHT22;6994;49.752;6.094;2022-09-27T04:43:33;10.00;99.90
13848;DHT22;6994;49.752;6.094;2022-09-27T04:46:00;9.90;99.90
13848;DHT22;6994;49.752;6.094;2022-09-27T04:48:27;9.80;99.90
13848;DHT22;6994;49.752;6.094;2022-09-27T04:50:55;9.70;99.90
13848;DHT22;6994;49.752;6.094;2022-09-27T04:53:22;9.50;99.90
13848;DHT22;6994;49.752;6.094;2022-09-27T04:55:50;9.50;99.90
13848;DHT22;6994;49.752;6.094;2022-09-27T04:58:16;9.40;99.90
13848;DHT22;6994;49.752;6.094;2022-09-27T05:00:43;9.30;99.90
13848;DHT22;6994;49.752;6.094;2022-09-27T05:03:10;9.30;99.90
13848;DHT22;6994;49.752;6.094;2022-09-27T05:05:38;9.30;99.90
13848;DHT22;6994;49.752;6.094;2022-09-27T05:08:05;9.20;99.90
13848;DHT22;6994;49.752;6.094;2022-09-27T05:10:32;9.20;99.90
13848;DHT22;6994;49.752;6.094;2022-09-27T05:12:59;9.20;99.90
13848;DHT22;6994;49.752;6.094;2022-09-27T05:15:26;9.20;99.90
13848;DHT22;6994;49.752;6.094;2022-09-27T05:17:54;9.20;99.90
13848;DHT22;6994;49.752;6.094;2022-09-27T05:20:21;9.10;99.90
13848;DHT22;6994;49.752;6.094;2022-09-27T05:22:48;9.10;99.90
13848;DHT22;6994;49.752;6.094;2022-09-27T05:25:15;9.10;99.90
13848;DHT22;6994;49.752;6.094;2022-09-27T05:27:42;9.10;99.90
13848;DHT22;6994;49.752;6.094;2022-09-27T05:30:10;9.10;99.90
13848;DHT22;6994;49.752;6.094;2022-09-27T05:32:43;9.10;99.90
13848;DHT22;6994;49.752;6.094;2022-09-27T05:35:10;9.00;99.90
13848;DHT22;6994;49.752;6.094;2022-09-27T05:37:38;9.00;99.90
13848;DHT22;6994;49.752;6.094;2022-09-27T05:40:05;9.00;99.90
13848;DHT22;6994;49.752;6.094;2022-09-27T05:42:32;9.00;99.90
13848;DHT22;6994;49.752;6.094;2022-09-27T05:45:00;9.00;99.90
13848;DHT22;6994;49.752;6.094;2022-09-27T05:47:28;9.00;99.90
13848;DHT22;6994;49.752;6.094;2022-09-27T05:49:55;9.00;99.90
13848;DHT22;6994;49.752;6.094;2022-09-27T05:52:22;9.00;99.90
13848;DHT22;6994;49.752;6.094;2022-09-27T05:54:49;8.90;99.90
13848;DHT22;6994;49.752;6.094;2022-09-27T05:57:16;9.00;99.90
13848;DHT22;6994;49.752;6.094;2022-09-27T05:59:44;8.90;99.90
13848;DHT22;6994;49.752;6.094;2022-09-27T06:02:11;9.20;99.90
13848;DHT22;6994;49.752;6.094;2022-09-27T06:04:38;9.20;99.90
13848;DHT22;6994;49.752;6.094;2022-09-27T06:07:05;9.30;99.90
13848;DHT22;6994;49.752;6.094;2022-09-27T06:09:32;9.30;99.90
13848;DHT22;6994;49.752;6.094;2022-09-27T06:12:00;9.20;99.90
13848;DHT22;6994;49.752;6.094;2022-09-27T06:14:27;9.20;99.90
13848;DHT22;6994;49.752;6.094;2022-09-27T06:16:54;9.20;99.90
13848;DHT22;6994;49.752;6.094;2022-09-27T06:19:21;9.30;99.90
13848;DHT22;6994;49.752;6.094;2022-09-27T06:21:49;9.30;99.90
13848;DHT22;6994;49.752;6.094;2022-09-27T06:24:16;9.30;99.90
13848;DHT22;6994;49.752;6.094;2022-09-27T06:26:43;9.40;99.90
13848;DHT22;6994;49.752;6.094;2022-09-27T06:29:10;9.40;99.90
13848;DHT22;6994;49.752;6.094;2022-09-27T06:31:37;9.40;99.90
13848;DHT22;6994;49.752;6.094;2022-09-27T06:34:04;9.40;99.90
13848;DHT22;6994;49.752;6.094;2022-09-27T06:36:32;9.50;99.90
13848;DHT22;6994;49.752;6.094;2022-09-27T06:38:59;9.50;99.90
13848;DHT22;6994;49.752;6.094;2022-09-27T06:41:26;9.60;99.90
13848;DHT22;6994;49.752;6.094;2022-09-27T06:43:53;9.60;99.90
13848;DHT22;6994;49.752;6.094;2022-09-27T06:46:20;9.70;99.90
13848;DHT22;6994;49.752;6.094;2022-09-27T06:48:48;9.70;99.90
13848;DHT22;6994;49.752;6.094;2022-09-27T06:51:16;9.70;99.90
13848;DHT22;6994;49.752;6.094;2022-09-27T06:53:43;9.70;99.90
13848;DHT22;6994;49.752;6.094;2022-09-27T06:56:10;9.70;99.90
13848;DHT22;6994;49.752;6.094;2022-09-27T06:58:37;9.70;99.90
13848;DHT22;6994;49.752;6.094;2022-09-27T07:01:28;9.70;99.90
13848;DHT22;6994;49.752;6.094;2022-09-27T07:03:56;9.70;99.90
13848;DHT22;6994;49.752;6.094;2022-09-27T07:06:23;9.70;99.90
13848;DHT22;6994;49.752;6.094;2022-09-27T07:08:51;9.70;99.90
13848;DHT22;6994;49.752;6.094;2022-09-27T07:11:18;9.70;99.90
13848;DHT22;6994;49.752;6.094;2022-09-27T07:13:45;9.70;99.90
13848;DHT22;6994;49.752;6.094;2022-09-27T07:16:15;9.80;99.90
13848;DHT22;6994;49.752;6.094;2022-09-27T07:18:42;9.80;99.90
13848;DHT22;6994;49.752;6.094;2022-09-27T07:21:09;9.90;99.90
13848;DHT22;6994;49.752;6.094;2022-09-27T07:23:37;10.20;99.90
13848;DHT22;6994;49.752;6.094;2022-09-27T07:26:04;10.40;99.90
13848;DHT22;6994;49.752;6.094;2022-09-27T07:28:31;10.40;99.90
13848;DHT22;6994;49.752;6.094;2022-09-27T07:30:58;10.40;99.90
13848;DHT22;6994;49.752;6.094;2022-09-27T07:33:25;10.40;99.90
13848;DHT22;6994;49.752;6.094;2022-09-27T07:35:53;10.40;99.90
13848;DHT22;6994;49.752;6.094;2022-09-27T07:38:20;10.40;99.90
13848;DHT22;6994;49.752;6.094;2022-09-27T07:40:47;10.40;99.90
13848;DHT22;6994;49.752;6.094;2022-09-27T07:43:15;10.60;99.90
13848;DHT22;6994;49.752;6.094;2022-09-27T07:45:43;10.60;99.90
13848;DHT22;6994;49.752;6.094;2022-09-27T07:48:14;10.60;99.90
13848;DHT22;6994;49.752;6.094;2022-09-27T07:50:37;10.70;99.90
13848;DHT22;6994;49.752;6.094;2022-09-27T07:53:05;10.70;99.90
13848;DHT22;6994;49.752;6.094;2022-09-27T07:55:32;10.90;99.90
13848;DHT22;6994;49.752;6.094;2022-09-27T07:58:06;10.90;99.90
13848;DHT22;6994;49.752;6.094;2022-09-27T08:00:29;10.90;99.90
13848;DHT22;6994;49.752;6.094;2022-09-27T08:02:56;11.00;99.90
13848;DHT22;6994;49.752;6.094;2022-09-27T08:05:24;11.10;99.90
13848;DHT22;6994;49.752;6.094;2022-09-27T08:07:54;11.20;99.90
13848;DHT22;6994;49.752;6.094;2022-09-27T08:10:22;11.50;99.90
13848;DHT22;6994;49.752;6.094;2022-09-27T08:12:50;11.60;99.90
13848;DHT22;6994;49.752;6.094;2022-09-27T08:15:17;11.60;99.90
13848;DHT22;6994;49.752;6.094;2022-09-27T08:17:44;11.60;99.90
13848;DHT22;6994;49.752;6.094;2022-09-27T08:20:11;11.60;99.90
13848;DHT22;6994;49.752;6.094;2022-09-27T08:22:39;11.60;99.90
13848;DHT22;6994;49.752;6.094;2022-09-27T08:25:06;11.50;99.90
13848;DHT22;6994;49.752;6.094;2022-09-27T08:27:33;11.40;99.90
13848;DHT22;6994;49.752;6.094;2022-09-27T08:30:00;11.40;99.90
13848;DHT22;6994;49.752;6.094;2022-09-27T08:32:27;11.70;99.90
13848;DHT22;6994;49.752;6.094;2022-09-27T08:34:55;11.80;99.90
13848;DHT22;6994;49.752;6.094;2022-09-27T08:37:22;11.90;99.90
13848;DHT22;6994;49.752;6.094;2022-09-27T08:39:49;12.00;99.90
13848;DHT22;6994;49.752;6.094;2022-09-27T08:42:36;12.20;99.90
13848;DHT22;6994;49.752;6.094;2022-09-27T08:47:44;12.40;99.90
13848;DHT22;6994;49.752;6.094;2022-09-27T08:50:28;12.60;99.90
13848;DHT22;6994;49.752;6.094;2022-09-27T08:53:03;12.50;99.90
13848;DHT22;6994;49.752;6.094;2022-09-27T08:55:31;12.60;99.90
13848;DHT22;6994;49.752;6.094;2022-09-27T08:57:57;12.50;99.90
13848;DHT22;6994;49.752;6.094;2022-09-27T09:00:24;12.50;99.90
13848;DHT22;6994;49.752;6.094;2022-09-27T09:02:51;12.30;99.90
13848;DHT22;6994;49.752;6.094;2022-09-27T09:05:32;12.10;99.90
13848;DHT22;6994;49.752;6.094;2022-09-27T09:10:53;12.00;99.90
13848;DHT22;6994;49.752;6.094;2022-09-27T09:16:33;11.70;99.90
13848;DHT22;6994;49.752;6.094;2022-09-27T09:24:26;11.50;99.90
13848;DHT22;6994;49.752;6.094;2022-09-27T09:27:01;11.20;99.90
13848;DHT22;6994;49.752;6.094;2022-09-27T09:35:05;10.90;99.90
13848;DHT22;6994;49.752;6.094;2022-09-27T09:37:37;10.60;99.90
13848;DHT22;6994;49.752;6.094;2022-09-27T09:40:12;10.70;99.90
13848;DHT22;6994;49.752;6.094;2022-09-27T09:42:44;10.70;99.90
13848;DHT22;6994;49.752;6.094;2022-09-27T09:45:19;10.60;99.90
13848;DHT22;6994;49.752;6.094;2022-09-27T09:47:47;10.50;99.90
13848;DHT22;6994;49.752;6.094;2022-09-27T09:50:19;10.40;99.90
13848;DHT22;6994;49.752;6.094;2022-09-27T09:52:49;10.60;99.90
13848;DHT22;6994;49.752;6.094;2022-09-27T09:55:16;10.70;99.90
13848;DHT22;6994;49.752;6.094;2022-09-27T09:57:45;10.80;99.90
13848;DHT22;6994;49.752;6.094;2022-09-27T10:00:16;10.90;99.90
13848;DHT22;6994;49.752;6.094;2022-09-27T10:02:42;11.00;99.90
13848;DHT22;6994;49.752;6.094;2022-09-27T10:05:12;11.10;99.90
13848;DHT22;6994;49.752;6.094;2022-09-27T10:07:36;11.30;99.90
13848;DHT22;6994;49.752;6.094;2022-09-27T10:10:04;11.80;99.90
13848;DHT22;6994;49.752;6.094;2022-09-27T10:12:31;12.10;99.90
13848;DHT22;6994;49.752;6.094;2022-09-27T10:14:58;12.60;99.90
13848;DHT22;6994;49.752;6.094;2022-09-27T10:17:27;12.80;99.90
13848;DHT22;6994;49.752;6.094;2022-09-27T10:19:54;12.80;99.90
13848;DHT22;6994;49.752;6.094;2022-09-27T10:22:28;12.90;99.90
13848;DHT22;6994;49.752;6.094;2022-09-27T10:24:54;12.90;99.90
13848;DHT22;6994;49.752;6.094;2022-09-27T10:27:20;13.40;99.90
13848;DHT22;6994;49.752;6.094;2022-09-27T10:29:54;13.60;99.90
13848;DHT22;6994;49.752;6.094;2022-09-27T10:32:20;13.50;99.90
13848;DHT22;6994;49.752;6.094;2022-09-27T10:34:45;13.40;99.90
13848;DHT22;6994;49.752;6.094;2022-09-27T10:37:16;13.30;99.90
13848;DHT22;6994;49.752;6.094;2022-09-27T10:39:46;13.20;99.90
13848;DHT22;6994;49.752;6.094;2022-09-27T10:42:19;13.00;99.90
13848;DHT22;6994;49.752;6.094;2022-09-27T10:44:45;13.00;99.90
13848;DHT22;6994;49.752;6.094;2022-09-27T10:47:13;13.40;99.90
13848;DHT22;6994;49.752;6.094;2022-09-27T10:49:40;13.50;99.90
13848;DHT22;6994;49.752;6.094;2022-09-27T10:52:13;13.80;99.90
13848;DHT22;6994;49.752;6.094;2022-09-27T10:54:38;13.80;99.90
13848;DHT22;6994;49.752;6.094;2022-09-27T10:59:41;14.00;99.90
13848;DHT22;6994;49.752;6.094;2022-09-27T11:02:27;13.90;99.90
13848;DHT22;6994;49.752;6.094;2022-09-27T11:05:27;13.80;99.90
13848;DHT22;6994;49.752;6.094;2022-09-27T11:07:54;13.90;99.90
13848;DHT22;6994;49.752;6.094;2022-09-27T11:10:21;14.20;99.90
13848;DHT22;6994;49.752;6.094;2022-09-27T11:15:43;14.70;99.90
13848;DHT22;6994;49.752;6.094;2022-09-27T11:18:07;14.90;99.90
13848;DHT22;6994;49.752;6.094;2022-09-27T11:20:35;14.60;99.90
13848;DHT22;6994;49.752;6.094;2022-09-27T11:28:52;13.80;99.90
13848;DHT22;6994;49.752;6.094;2022-09-27T11:31:39;13.50;99.90
13848;DHT22;6994;49.752;6.094;2022-09-27T11:34:14;13.40;99.90
13848;DHT22;6994;49.752;6.094;2022-09-27T11:39:22;13.20;99.90
13848;DHT22;6994;49.752;6.094;2022-09-27T11:42:03;13.50;99.90
13848;DHT22;6994;49.752;6.094;2022-09-27T11:44:38;13.50;99.90
13848;DHT22;6994;49.752;6.094;2022-09-27T11:47:05;13.50;99.90
13848;DHT22;6994;49.752;6.094;2022-09-27T11:49:41;13.40;99.90
13848;DHT22;6994;49.752;6.094;2022-09-27T11:52:32;13.20;99.90
13848;DHT22;6994;49.752;6.094;2022-09-27T11:57:40;13.10;99.90
13848;DHT22;6994;49.752;6.094;2022-09-27T12:00:18;13.40;99.90
13848;DHT22;6994;49.752;6.094;2022-09-27T12:08:32;13.50;99.90
13848;DHT22;6994;49.752;6.094;2022-09-27T12:11:04;13.40;99.90
13848;DHT22;6994;49.752;6.094;2022-09-27T12:13:32;13.30;99.90
13848;DHT22;6994;49.752;6.094;2022-09-27T12:15:58;13.30;99.90
13848;DHT22;6994;49.752;6.094;2022-09-27T12:18:29;13.20;99.90
13848;DHT22;6994;49.752;6.094;2022-09-27T12:20:55;13.20;99.90
13848;DHT22;6994;49.752;6.094;2022-09-27T12:23:24;13.00;99.90
13848;DHT22;6994;49.752;6.094;2022-09-27T12:25:51;12.70;99.90
13848;DHT22;6994;49.752;6.094;2022-09-27T12:28:19;12.50;99.90
13848;DHT22;6994;49.752;6.094;2022-09-27T12:30:47;12.40;99.90
13848;DHT22;6994;49.752;6.094;2022-09-27T12:33:36;12.40;99.90
13848;DHT22;6994;49.752;6.094;2022-09-27T12:36:03;12.30;99.90
13848;DHT22;6994;49.752;6.094;2022-09-27T12:38:45;12.30;99.90
13848;DHT22;6994;49.752;6.094;2022-09-27T12:41:11;12.50;99.90
13848;DHT22;6994;49.752;6.094;2022-09-27T12:43:37;12.90;99.90
13848;DHT22;6994;49.752;6.094;2022-09-27T12:46:32;13.20;99.90
13848;DHT22;6994;49.752;6.094;2022-09-27T12:49:13;13.40;99.90
13848;DHT22;6994;49.752;6.094;2022-09-27T12:51:43;13.60;99.90
13848;DHT22;6994;49.752;6.094;2022-09-27T12:57:05;14.20;99.90
13848;DHT22;6994;49.752;6.094;2022-09-27T13:09:05;14.30;99.90
13848;DHT22;6994;49.752;6.094;2022-09-27T13:13:41;14.70;99.90
13848;DHT22;6994;49.752;6.094;2022-09-27T13:16:08;14.70;99.90
13848;DHT22;6994;49.752;6.094;2022-09-27T13:21:03;14.30;99.90
13848;DHT22;6994;49.752;6.094;2022-09-27T13:25:59;14.30;99.90
13848;DHT22;6994;49.752;6.094;2022-09-27T13:31:04;15.20;99.90
13848;DHT22;6994;49.752;6.094;2022-09-27T13:33:47;16.10;99.90
13848;DHT22;6994;49.752;6.094;2022-09-27T13:44:11;16.40;99.90
13848;DHT22;6994;49.752;6.094;2022-09-27T13:46:36;15.90;99.90
13848;DHT22;6994;49.752;6.094;2022-09-27T13:49:04;15.50;99.90
13848;DHT22;6994;49.752;6.094;2022-09-27T13:51:42;15.20;99.90
13848;DHT22;6994;49.752;6.094;2022-09-27T13:54:35;14.90;99.90
13848;DHT22;6994;49.752;6.094;2022-09-27T13:56:57;15.10;99.90
13848;DHT22;6994;49.752;6.094;2022-09-27T13:59:31;15.20;99.90
13848;DHT22;6994;49.752;6.094;2022-09-27T14:02:11;15.10;99.90
13848;DHT22;6994;49.752;6.094;2022-09-27T14:04:36;14.80;99.90
13848;DHT22;6994;49.752;6.094;2022-09-27T14:06:58;14.60;99.90
13848;DHT22;6994;49.752;6.094;2022-09-27T14:09:38;14.40;99.90
13848;DHT22;6994;49.752;6.094;2022-09-27T14:12:11;14.00;99.90
13848;DHT22;6994;49.752;6.094;2022-09-27T14:14:39;14.00;99.90
13848;DHT22;6994;49.752;6.094;2022-09-27T14:17:06;14.00;99.90
13848;DHT22;6994;49.752;6.094;2022-09-27T14:19:36;14.20;99.90
13848;DHT22;6994;49.752;6.094;2022-09-27T14:22:00;14.30;99.90
13848;DHT22;6994;49.752;6.094;2022-09-27T14:24:28;14.70;99.90
13848;DHT22;6994;49.752;6.094;2022-09-27T14:27:17;14.60;99.90
13848;DHT22;6994;49.752;6.094;2022-09-27T14:29:44;14.80;99.90
13848;DHT22;6994;49.752;6.094;2022-09-27T14:32:12;14.50;99.90
13848;DHT22;6994;49.752;6.094;2022-09-27T14:34:38;14.60;99.90
13848;DHT22;6994;49.752;6.094;2022-09-27T14:37:11;14.60;99.90
13848;DHT22;6994;49.752;6.094;2022-09-27T14:39:57;14.50;99.90
13848;DHT22;6994;49.752;6.094;2022-09-27T14:42:24;14.40;99.90
13848;DHT22;6994;49.752;6.094;2022-09-27T14:44:51;14.70;99.90
13848;DHT22;6994;49.752;6.094;2022-09-27T14:47:19;14.70;99.90
13848;DHT22;6994;49.752;6.094;2022-09-27T14:49:52;14.80;99.90
13848;DHT22;6994;49.752;6.094;2022-09-27T14:52:19;14.60;99.90
13848;DHT22;6994;49.752;6.094;2022-09-27T14:54:53;14.60;99.90
13848;DHT22;6994;49.752;6.094;2022-09-27T14:57:13;14.40;99.90
13848;DHT22;6994;49.752;6.094;2022-09-27T14:59:40;14.40;99.90
13848;DHT22;6994;49.752;6.094;2022-09-27T15:02:10;14.40;99.90
13848;DHT22;6994;49.752;6.094;2022-09-27T15:04:35;14.40;99.90
13848;DHT22;6994;49.752;6.094;2022-09-27T15:07:02;14.30;99.90
13848;DHT22;6994;49.752;6.094;2022-09-27T15:09:29;14.30;99.90
13848;DHT22;6994;49.752;6.094;2022-09-27T15:11:57;14.30;99.90
13848;DHT22;6994;49.752;6.094;2022-09-27T15:14:23;14.30;99.90
13848;DHT22;6994;49.752;6.094;2022-09-27T15:16:51;14.20;99.90
13848;DHT22;6994;49.752;6.094;2022-09-27T15:19:25;14.10;99.90
13848;DHT22;6994;49.752;6.094;2022-09-27T15:21:51;14.20;99.90
13848;DHT22;6994;49.752;6.094;2022-09-27T15:24:42;14.20;99.90
13848;DHT22;6994;49.752;6.094;2022-09-27T15:27:11;14.00;99.90
13848;DHT22;6994;49.752;6.094;2022-09-27T15:29:32;14.00;99.90
13848;DHT22;6994;49.752;6.094;2022-09-27T15:32:03;13.90;99.90
13848;DHT22;6994;49.752;6.094;2022-09-27T15:34:29;13.80;99.90
13848;DHT22;6994;49.752;6.094;2022-09-27T15:36:56;13.70;99.90
13848;DHT22;6994;49.752;6.094;2022-09-27T15:39:27;13.60;99.90
13848;DHT22;6994;49.752;6.094;2022-09-27T15:42:09;13.50;99.90
13848;DHT22;6994;49.752;6.094;2022-09-27T15:44:42;13.40;99.90
13848;DHT22;6994;49.752;6.094;2022-09-27T15:47:03;13.60;99.90
13848;DHT22;6994;49.752;6.094;2022-09-27T15:49:31;13.60;99.90
13848;DHT22;6994;49.752;6.094;2022-09-27T15:51:59;13.50;99.90
13848;DHT22;6994;49.752;6.094;2022-09-27T15:54:26;13.50;99.90
13848;DHT22;6994;49.752;6.094;2022-09-27T15:56:53;13.40;99.90
13848;DHT22;6994;49.752;6.094;2022-09-27T15:59:27;13.30;99.90
13848;DHT22;6994;49.752;6.094;2022-09-27T16:01:53;13.20;99.90
13848;DHT22;6994;49.752;6.094;2022-09-27T16:04:18;13.20;99.90
13848;DHT22;6994;49.752;6.094;2022-09-27T16:06:45;13.20;99.90
13848;DHT22;6994;49.752;6.094;2022-09-27T16:09:16;13.20;99.90
13848;DHT22;6994;49.752;6.094;2022-09-27T16:11:42;13.10;99.90
13848;DHT22;6994;49.752;6.094;2022-09-27T16:14:10;13.00;99.90
13848;DHT22;6994;49.752;6.094;2022-09-27T16:16:38;13.00;99.90
13848;DHT22;6994;49.752;6.094;2022-09-27T16:19:04;13.00;99.90
13848;DHT22;6994;49.752;6.094;2022-09-27T16:21:32;12.80;99.90
13848;DHT22;6994;49.752;6.094;2022-09-27T16:24:00;12.70;99.90
13848;DHT22;6994;49.752;6.094;2022-09-27T16:26:28;12.70;99.90
13848;DHT22;6994;49.752;6.094;2022-09-27T16:28:56;12.60;99.90
13848;DHT22;6994;49.752;6.094;2022-09-27T16:31:24;12.60;99.90
13848;DHT22;6994;49.752;6.094;2022-09-27T16:33:51;12.50;99.90
13848;DHT22;6994;49.752;6.094;2022-09-27T16:36:18;12.50;99.90
13848;DHT22;6994;49.752;6.094;2022-09-27T16:38:48;12.40;99.90
13848;DHT22;6994;49.752;6.094;2022-09-27T16:41:15;12.40;99.90
13848;DHT22;6994;49.752;6.094;2022-09-27T16:43:42;12.60;99.90
13848;DHT22;6994;49.752;6.094;2022-09-27T16:46:10;12.60;99.90
13848;DHT22;6994;49.752;6.094;2022-09-27T16:48:38;12.40;99.90
13848;DHT22;6994;49.752;6.094;2022-09-27T16:51:06;12.40;99.90
13848;DHT22;6994;49.752;6.094;2022-09-27T16:53:50;12.30;99.90
13848;DHT22;6994;49.752;6.094;2022-09-27T16:56:17;12.20;99.90
13848;DHT22;6994;49.752;6.094;2022-09-27T16:58:45;12.10;99.90
13848;DHT22;6994;49.752;6.094;2022-09-27T17:01:12;12.10;99.90
13848;DHT22;6994;49.752;6.094;2022-09-27T17:03:39;12.00;99.90
13848;DHT22;6994;49.752;6.094;2022-09-27T17:06:07;11.90;99.90
13848;DHT22;6994;49.752;6.094;2022-09-27T17:08:35;11.90;99.90
13848;DHT22;6994;49.752;6.094;2022-09-27T17:11:03;11.80;99.90
13848;DHT22;6994;49.752;6.094;2022-09-27T17:13:31;11.80;99.90
13848;DHT22;6994;49.752;6.094;2022-09-27T17:15:58;11.80;99.90
13848;DHT22;6994;49.752;6.094;2022-09-27T17:18:25;11.80;99.90
13848;DHT22;6994;49.752;6.094;2022-09-27T17:20:58;11.70;99.90
13848;DHT22;6994;49.752;6.094;2022-09-27T17:23:20;11.90;99.90
13848;DHT22;6994;49.752;6.094;2022-09-27T17:25:47;11.90;99.90
13848;DHT22;6994;49.752;6.094;2022-09-27T17:28:14;12.10;99.90
13848;DHT22;6994;49.752;6.094;2022-09-27T17:30:41;12.10;99.90
13848;DHT22;6994;49.752;6.094;2022-09-27T17:33:08;12.00;99.90
13848;DHT22;6994;49.752;6.094;2022-09-27T17:35:36;11.90;99.90
13848;DHT22;6994;49.752;6.094;2022-09-27T17:38:04;11.70;99.90
13848;DHT22;6994;49.752;6.094;2022-09-27T17:40:32;11.60;99.90
13848;DHT22;6994;49.752;6.094;2022-09-27T17:43:00;11.50;99.90
13848;DHT22;6994;49.752;6.094;2022-09-27T17:45:28;11.50;99.90
13848;DHT22;6994;49.752;6.094;2022-09-27T17:47:56;11.50;99.90
13848;DHT22;6994;49.752;6.094;2022-09-27T17:50:44;11.40;99.90
13848;DHT22;6994;49.752;6.094;2022-09-27T17:53:08;11.20;99.90
13848;DHT22;6994;49.752;6.094;2022-09-27T17:55:36;11.10;99.90
13848;DHT22;6994;49.752;6.094;2022-09-27T17:58:04;11.00;99.90